Time;durP1;ratioP1;P1;durP2;ratioP2;P2;SDS_P1;SDS_P2;PMS_P1;PMS_P2;Temp;Humidity;BMP_temperature;BMP_pressure;BME280_temperature;BME280_humidity;BME280_pressure;Samples;Min_cycle;Max_cycle;Signal;HPM_P1;HPM_P2
2022/05/12 00:02:18;;;;;;;3.13;2.70;;;21.80;99.90;;;;;;5078976;28;20602;-72
2022/05/12 00:04:45;;;;;;;7.33;2.97;;;21.90;99.90;;;;;;5078564;28;20624;-72
2022/05/12 00:07:14;;;;;;;5.93;3.47;;;21.90;99.90;;;;;;5096555;28;20637;-72
2022/05/12 00:09:40;;;;;;;3.07;2.87;;;21.80;99.90;;;;;;5078750;28;21168;-72
2022/05/12 00:12:07;;;;;;;5.47;2.67;;;21.90;99.90;;;;;;5077932;28;20622;-72
2022/05/12 00:14:33;;;;;;;2.70;2.50;;;21.90;99.90;;;;;;5078282;28;20594;-72
2022/05/12 00:17:01;;;;;;;4.57;3.00;;;21.90;99.90;;;;;;5095030;28;20620;-72
2022/05/12 00:19:29;;;;;;;2.90;2.70;;;21.80;99.90;;;;;;5096119;28;20678;-73
2022/05/12 00:21:56;;;;;;;6.27;2.70;;;21.80;99.90;;;;;;5095588;28;21179;-73
2022/05/12 00:24:23;;;;;;;4.53;4.20;;;21.80;99.90;;;;;;5094784;28;21050;-73
2022/05/12 00:26:49;;;;;;;3.90;2.70;;;21.80;99.90;;;;;;5076939;28;20621;-73
2022/05/12 00:29:16;;;;;;;5.70;2.53;;;21.70;99.90;;;;;;5095176;28;20625;-71
2022/05/12 00:31:44;;;;;;;3.27;2.50;;;21.60;99.90;;;;;;5094842;28;20669;-70
2022/05/12 00:34:12;;;;;;;2.30;2.20;;;21.50;99.90;;;;;;5094956;28;20613;-71
2022/05/12 00:36:38;;;;;;;3.23;3.00;;;21.40;99.90;;;;;;5094541;28;20613;-71
2022/05/12 00:39:05;;;;;;;3.60;2.50;;;21.40;99.90;;;;;;5094810;28;20649;-73
2022/05/12 00:41:33;;;;;;;9.43;3.03;;;21.40;99.90;;;;;;5094170;28;20616;-73
2022/05/12 00:44:02;;;;;;;2.50;2.30;;;21.40;99.90;;;;;;5077031;28;21168;-73
2022/05/12 00:46:31;;;;;;;3.33;2.70;;;21.40;99.90;;;;;;5094155;28;21014;-73
2022/05/12 00:49:02;;;;;;;3.70;2.40;;;21.30;99.90;;;;;;5094012;28;20622;-73
2022/05/12 00:51:37;;;;;;;2.47;2.30;;;21.30;99.90;;;;;;5096036;28;20583;-73
2022/05/12 00:54:17;;;;;;;4.07;2.40;;;21.30;99.90;;;;;;5095894;28;20646;-73
2022/05/12 00:56:44;;;;;;;2.70;2.50;;;21.30;99.90;;;;;;5094773;28;20689;-73
2022/05/12 00:59:22;;;;;;;3.43;2.53;;;21.30;99.90;;;;;;5095416;28;20653;-73
2022/05/12 01:01:48;;;;;;;3.03;2.53;;;21.30;99.90;;;;;;5095614;28;20581;-71
2022/05/12 01:04:15;;;;;;;4.07;2.40;;;21.30;99.90;;;;;;5093732;28;20601;-70
2022/05/12 01:06:42;;;;;;;2.57;2.37;;;21.30;99.90;;;;;;5093158;28;20703;-70
2022/05/12 01:09:08;;;;;;;2.63;2.03;;;21.30;99.90;;;;;;5075919;28;20617;-72
2022/05/12 01:11:35;;;;;;;4.40;2.70;;;21.30;99.90;;;;;;5095100;28;20617;-72
2022/05/12 01:14:04;;;;;;;2.90;2.60;;;21.20;99.90;;;;;;5094065;28;21171;-72
2022/05/12 01:16:57;;;;;;;6.73;2.33;;;21.20;99.90;;;;;;5094402;28;20624;-72
2022/05/12 01:19:39;;;;;;;2.70;2.27;;;21.20;99.90;;;;;;5095006;28;20656;-72
2022/05/12 01:22:08;;;;;;;3.73;2.63;;;21.10;99.90;;;;;;5095401;28;20577;-72
2022/05/12 01:24:39;;;;;;;2.10;1.90;;;21.10;99.90;;;;;;5093537;28;20598;-72
2022/05/12 01:27:19;;;;;;;9.37;2.20;;;21.00;99.90;;;;;;5093001;28;20613;-72
2022/05/12 01:29:57;;;;;;;3.53;2.10;;;21.00;99.90;;;;;;5061623;28;20690;-72
2022/05/12 01:32:26;;;;;;;2.83;2.00;;;20.90;99.90;;;;;;5094889;28;20584;-72
2022/05/12 01:34:54;;;;;;;3.60;2.20;;;20.90;99.90;;;;;;5094438;28;20613;-72
2022/05/12 01:37:21;;;;;;;2.17;2.00;;;20.90;99.90;;;;;;5075495;28;20636;-72
2022/05/12 01:39:48;;;;;;;3.23;1.97;;;20.90;99.90;;;;;;5093614;28;20659;-72
2022/05/12 01:42:16;;;;;;;4.43;1.90;;;20.80;99.90;;;;;;5093760;28;21230;-72
2022/05/12 01:44:42;;;;;;;3.20;2.10;;;20.90;99.90;;;;;;5093108;28;20592;-72
2022/05/12 01:47:12;;;;;;;1.80;1.70;;;20.80;99.90;;;;;;5093586;28;20616;-72
2022/05/12 01:49:39;;;;;;;2.30;1.60;;;20.80;99.90;;;;;;5094476;28;20663;-72
2022/05/12 01:52:06;;;;;;;2.03;1.80;;;20.70;99.90;;;;;;5094701;28;20598;-72
2022/05/12 01:54:33;;;;;;;3.53;1.80;;;20.60;99.90;;;;;;5094755;28;20610;-72
2022/05/12 01:56:59;;;;;;;2.83;2.00;;;20.60;99.90;;;;;;5094598;28;20621;-72
2022/05/12 01:59:25;;;;;;;2.30;2.00;;;20.50;99.90;;;;;;5059335;28;21013;-71
2022/05/12 02:01:52;;;;;;;5.33;2.13;;;20.50;99.90;;;;;;5094426;28;20608;-71
2022/05/12 02:04:19;;;;;;;3.67;2.00;;;20.50;99.90;;;;;;5093315;28;20621;-72
2022/05/12 02:06:46;;;;;;;2.37;2.20;;;20.40;99.90;;;;;;5074205;28;20648;-72
2022/05/12 02:09:13;;;;;;;9.03;2.17;;;20.40;99.90;;;;;;5092967;28;20658;-72
2022/05/12 02:11:39;;;;;;;1.70;1.60;;;20.40;99.90;;;;;;5092462;28;20787;-72
2022/05/12 02:14:06;;;;;;;1.90;1.80;;;20.30;99.90;;;;;;5074889;28;20609;-72
2022/05/12 02:16:34;;;;;;;11.73;2.30;;;20.30;99.90;;;;;;5075970;28;20990;-72
2022/05/12 02:19:02;;;;;;;2.33;1.90;;;20.20;99.90;;;;;;5078302;28;20618;-72
2022/05/12 02:21:29;;;;;;;4.03;1.60;;;20.10;99.90;;;;;;5078149;28;20624;-72
2022/05/12 02:23:55;;;;;;;1.80;1.70;;;20.10;99.90;;;;;;5096449;28;20601;-72
2022/05/12 02:26:22;;;;;;;3.87;2.27;;;20.00;99.90;;;;;;5096369;28;20604;-72
2022/05/12 02:28:49;;;;;;;2.23;2.03;;;20.00;99.90;;;;;;5078069;28;20621;-72
2022/05/12 02:31:15;;;;;;;2.47;1.87;;;19.90;99.90;;;;;;5096080;28;20965;-72
2022/05/12 02:33:42;;;;;;;18.40;2.20;;;19.90;99.90;;;;;;5096214;28;20953;-72
2022/05/12 02:36:08;;;;;;;2.07;1.80;;;19.80;99.90;;;;;;5095929;28;20620;-72
2022/05/12 02:38:35;;;;;;;5.40;2.00;;;19.80;99.90;;;;;;5096724;28;20662;-72
2022/05/12 02:41:01;;;;;;;2.70;1.60;;;19.80;99.90;;;;;;5079142;28;20668;-72
2022/05/12 02:43:29;;;;;;;4.37;1.70;;;19.70;99.90;;;;;;5096738;28;20635;-72
2022/05/12 02:45:58;;;;;;;5.83;2.43;;;19.70;99.90;;;;;;5096572;28;20628;-72
2022/05/12 02:48:27;;;;;;;2.27;1.53;;;19.70;99.90;;;;;;5096713;28;20601;-72
2022/05/12 02:50:54;;;;;;;6.53;2.30;;;19.60;99.90;;;;;;5095934;28;21193;-72
2022/05/12 02:53:21;;;;;;;2.10;1.80;;;19.50;99.90;;;;;;5095928;28;20634;-72
2022/05/12 02:55:47;;;;;;;2.30;2.10;;;19.50;99.90;;;;;;5096130;28;20608;-72
2022/05/12 02:58:14;;;;;;;2.60;1.70;;;19.40;99.90;;;;;;5097083;28;20613;-72
2022/05/12 03:00:41;;;;;;;4.97;1.97;;;19.30;99.90;;;;;;5095921;28;20668;-71
2022/05/12 03:03:07;;;;;;;3.90;1.87;;;19.30;99.90;;;;;;5096279;28;20631;-71
2022/05/12 03:05:35;;;;;;;2.93;1.83;;;19.20;99.90;;;;;;5095691;28;21235;-72
2022/05/12 03:08:03;;;;;;;4.20;2.13;;;19.20;99.90;;;;;;5095920;28;20975;-71
2022/05/12 03:10:31;;;;;;;9.27;1.83;;;19.10;99.90;;;;;;5096140;28;20974;-71
2022/05/12 03:12:58;;;;;;;4.00;1.77;;;19.00;99.90;;;;;;5096106;28;21194;-72
2022/05/12 03:15:24;;;;;;;4.73;1.90;;;19.00;99.90;;;;;;5096542;28;20609;-70
2022/05/12 03:17:51;;;;;;;4.80;2.47;;;19.00;99.90;;;;;;5096119;28;20609;-71
2022/05/12 03:20:20;;;;;;;3.97;1.70;;;18.90;99.90;;;;;;5096595;28;20645;-72
2022/05/12 03:22:47;;;;;;;4.10;2.10;;;18.90;99.90;;;;;;5096458;28;20618;-73
2022/05/12 03:25:15;;;;;;;4.13;1.70;;;18.90;99.90;;;;;;5096703;28;21161;-73
2022/05/12 03:27:42;;;;;;;2.37;1.73;;;18.90;99.90;;;;;;5095199;28;20609;-71
2022/05/12 03:30:13;;;;;;;1.50;1.40;;;18.90;99.90;;;;;;5077917;28;20621;-73
2022/05/12 03:32:40;;;;;;;2.17;1.60;;;18.90;99.90;;;;;;5096253;28;20582;-73
2022/05/12 03:35:09;;;;;;;3.13;2.00;;;18.80;99.90;;;;;;5097049;28;20588;-73
2022/05/12 03:37:36;;;;;;;1.60;1.50;;;18.80;99.90;;;;;;5096935;28;20629;-70
2022/05/12 03:40:08;;;;;;;2.03;1.77;;;18.90;99.90;;;;;;5078099;28;20751;-71
2022/05/12 03:42:34;;;;;;;4.80;1.93;;;18.90;99.90;;;;;;5096175;28;20566;-72
2022/05/12 03:45:01;;;;;;;3.97;1.97;;;18.90;99.90;;;;;;5096222;28;20609;-72
2022/05/12 03:47:33;;;;;;;1.70;1.60;;;18.90;99.90;;;;;;5095953;28;20605;-72
2022/05/12 03:50:03;;;;;;;1.83;1.73;;;18.90;99.90;;;;;;5095372;28;20629;-72
2022/05/12 03:52:31;;;;;;;2.87;1.87;;;18.80;99.90;;;;;;5095523;28;21026;-72
2022/05/12 03:54:57;;;;;;;2.10;1.90;;;18.70;99.90;;;;;;5096147;28;21061;-72
2022/05/12 03:57:25;;;;;;;2.50;1.47;;;18.70;99.90;;;;;;5097097;28;20627;-72
2022/05/12 03:59:53;;;;;;;2.33;2.13;;;18.80;99.90;;;;;;5096641;28;21219;-72
2022/05/12 04:02:20;;;;;;;1.53;1.43;;;18.70;99.90;;;;;;5097030;28;20598;-72
2022/05/12 04:04:48;;;;;;;4.10;1.63;;;18.70;99.90;;;;;;5096699;28;20609;-72
2022/05/12 04:07:18;;;;;;;6.83;1.90;;;18.70;99.90;;;;;;5096006;28;20651;-72
2022/05/12 04:09:45;;;;;;;3.47;1.80;;;18.60;99.90;;;;;;5096643;28;20610;-73
2022/05/12 04:12:12;;;;;;;2.00;1.60;;;18.60;99.90;;;;;;5095851;28;20800;-73
2022/05/12 04:14:41;;;;;;;1.60;1.50;;;18.60;99.90;;;;;;5094988;28;20614;-72
2022/05/12 04:17:13;;;;;;;4.60;1.80;;;18.50;99.90;;;;;;5094599;28;20654;-72
2022/05/12 04:19:40;;;;;;;3.83;1.40;;;18.60;99.90;;;;;;5094715;28;20584;-72
2022/05/12 04:22:07;;;;;;;2.77;1.60;;;18.60;99.90;;;;;;5095039;28;20606;-73
2022/05/12 04:24:33;;;;;;;4.57;1.70;;;18.60;99.90;;;;;;5094823;28;20609;-73
2022/05/12 04:27:00;;;;;;;1.60;1.50;;;18.50;99.90;;;;;;5094572;28;21020;-73
2022/05/12 04:29:26;;;;;;;4.87;2.50;;;18.50;99.90;;;;;;5094884;28;20605;-72
2022/05/12 04:31:53;;;;;;;5.27;2.30;;;18.50;99.90;;;;;;5095920;28;20924;-72
2022/05/12 04:37:05;;;;;;;3.10;2.10;;;18.40;99.90;;;;;;5095493;28;20570;-73
2022/05/12 04:39:32;;;;;;;2.23;2.00;;;18.40;99.90;;;;;;5095465;28;20966;-72
2022/05/12 04:41:58;;;;;;;2.23;2.03;;;18.40;99.90;;;;;;5076614;28;20682;-73
2022/05/12 04:44:26;;;;;;;3.40;2.00;;;18.30;99.90;;;;;;5095291;28;20624;-73
2022/05/12 04:46:53;;;;;;;5.03;1.83;;;18.40;99.90;;;;;;5095519;28;21148;-72
2022/05/12 04:49:19;;;;;;;5.50;1.90;;;18.40;99.90;;;;;;5094854;28;20598;-73
2022/05/12 04:51:45;;;;;;;4.20;1.97;;;18.40;99.90;;;;;;5094477;28;20617;-73
2022/05/12 04:54:14;;;;;;;2.03;1.83;;;18.40;99.90;;;;;;5093787;28;21244;-72
2022/05/12 04:56:41;;;;;;;1.87;1.77;;;18.40;99.90;;;;;;5076018;28;20628;-72
2022/05/12 04:59:09;;;;;;;1.97;1.87;;;18.30;99.90;;;;;;5094170;28;20605;-72
2022/05/12 05:01:36;;;;;;;2.30;1.70;;;18.40;99.90;;;;;;5093776;28;20657;-73
2022/05/12 05:04:03;;;;;;;3.10;2.40;;;18.50;99.90;;;;;;5093752;28;21160;-72
2022/05/12 05:06:33;;;;;;;2.77;1.97;;;18.50;99.90;;;;;;5093729;28;20652;-73
2022/05/12 05:09:00;;;;;;;2.10;1.90;;;18.50;99.90;;;;;;5076011;28;20625;-72
2022/05/12 05:11:27;;;;;;;3.07;1.83;;;18.40;99.90;;;;;;5093570;28;21247;-72
2022/05/12 05:13:53;;;;;;;3.60;1.67;;;18.40;99.90;;;;;;5075129;28;20984;-72
2022/05/12 05:16:20;;;;;;;5.10;2.40;;;18.40;99.90;;;;;;5093825;28;20617;-72
2022/05/12 05:18:47;;;;;;;1.87;1.77;;;18.50;99.90;;;;;;5075994;28;20696;-73
2022/05/12 05:21:13;;;;;;;3.33;2.27;;;18.50;99.90;;;;;;5093116;28;20665;-73
2022/05/12 05:23:40;;;;;;;5.90;1.87;;;18.50;99.90;;;;;;5093951;28;20607;-73
2022/05/12 05:26:08;;;;;;;3.07;2.30;;;18.40;99.90;;;;;;5093428;28;21259;-73
2022/05/12 05:28:36;;;;;;;2.17;1.90;;;18.50;99.90;;;;;;5094205;28;21156;-72
2022/05/12 05:31:04;;;;;;;2.30;2.20;;;18.40;99.90;;;;;;5094390;28;20625;-72
2022/05/12 05:33:31;;;;;;;2.60;2.40;;;18.40;99.90;;;;;;5094691;28;21191;-73
2022/05/12 05:35:57;;;;;;;3.47;1.93;;;18.40;99.90;;;;;;5095745;28;20617;-72
2022/05/12 05:38:25;;;;;;;2.93;2.17;;;18.30;99.90;;;;;;5095386;28;20602;-72
2022/05/12 05:40:51;;;;;;;1.83;1.73;;;18.40;99.90;;;;;;5094717;28;20663;-72
2022/05/12 05:43:19;;;;;;;3.00;2.40;;;18.50;99.90;;;;;;5095957;28;20601;-72
2022/05/12 05:45:46;;;;;;;2.10;2.00;;;18.40;99.90;;;;;;5077256;28;20670;-72
2022/05/12 05:48:13;;;;;;;6.70;1.83;;;18.40;99.90;;;;;;5093147;28;20670;-74
2022/05/12 05:53:30;;;;;;;3.13;1.77;;;19.10;99.90;;;;;;5098545;28;20694;-75
2022/05/12 05:55:59;;;;;;;3.00;2.30;;;19.20;99.90;;;;;;5098917;28;20592;-76
2022/05/12 05:58:27;;;;;;;4.60;1.83;;;19.00;99.90;;;;;;5098586;28;20690;-77
2022/05/12 06:00:54;;;;;;;3.27;1.93;;;18.90;99.90;;;;;;5099308;28;20710;-77
2022/05/12 06:03:21;;;;;;;2.30;1.80;;;18.90;99.90;;;;;;5099741;28;20605;-76
2022/05/12 06:05:48;;;;;;;3.47;2.37;;;18.80;99.90;;;;;;5098559;28;21063;-76
2022/05/12 06:08:17;;;;;;;2.47;1.90;;;18.80;99.90;;;;;;5099486;28;20577;-75
2022/05/12 06:10:44;;;;;;;6.83;2.33;;;18.70;99.90;;;;;;5098062;28;21120;-76
2022/05/12 06:13:13;;;;;;;1.60;1.50;;;18.90;99.90;;;;;;5098817;28;20970;-76
2022/05/12 06:15:40;;;;;;;1.90;1.80;;;19.00;99.90;;;;;;5099453;28;20964;-76
2022/05/12 06:18:12;;;;;;;1.83;1.73;;;18.90;99.90;;;;;;5098182;28;20612;-76
2022/05/12 06:20:40;;;;;;;5.03;1.93;;;18.80;99.90;;;;;;5082284;28;20621;-76
2022/05/12 06:23:06;;;;;;;2.20;1.73;;;19.00;99.90;;;;;;5099346;28;20609;-76
2022/05/12 06:25:33;;;;;;;3.47;2.17;;;19.10;99.90;;;;;;5081151;28;20617;-77
2022/05/12 06:27:59;;;;;;;2.07;1.97;;;19.10;99.90;;;;;;5080419;28;20609;-77
2022/05/12 06:30:27;;;;;;;5.13;1.83;;;19.20;99.90;;;;;;5098462;28;20621;-77
2022/05/12 06:32:56;;;;;;;1.95;1.60;;;19.20;99.90;;;;;;5098925;28;21022;-71
2022/05/12 06:35:24;;;;;;;2.10;1.90;;;19.20;99.90;;;;;;5097123;28;20651;-68
2022/05/12 06:37:51;;;;;;;1.87;1.70;;;19.40;99.90;;;;;;5097303;28;20613;-69
2022/05/12 06:40:18;;;;;;;2.07;1.57;;;19.50;99.90;;;;;;5078348;28;20661;-70
2022/05/12 06:42:45;;;;;;;4.20;1.80;;;19.30;99.90;;;;;;5096147;28;20609;-71
2022/05/12 06:45:15;;;;;;;1.80;1.70;;;19.40;99.90;;;;;;5093751;28;20632;-70
2022/05/12 06:47:51;;;;;;;6.73;2.00;;;19.50;99.90;;;;;;5097073;28;21171;-73
2022/05/12 06:50:28;;;;;;;3.13;1.77;;;19.50;99.90;;;;;;5098534;28;20569;-73
2022/05/12 06:52:54;;;;;;;2.50;1.60;;;19.60;99.90;;;;;;5096961;28;20576;-71
2022/05/12 06:55:22;;;;;;;1.50;1.40;;;19.80;99.90;;;;;;5097029;28;20617;-73
2022/05/12 06:57:49;;;;;;;3.07;2.23;;;19.90;99.90;;;;;;5062320;28;20632;-73
2022/05/12 07:00:16;;;;;;;2.93;2.03;;;20.00;99.90;;;;;;5098035;28;20609;-73
2022/05/12 07:02:45;;;;;;;2.40;2.07;;;20.10;99.90;;;;;;5096956;28;20586;-71
2022/05/12 07:05:13;;;;;;;3.87;1.80;;;20.30;99.90;;;;;;5097412;28;20640;-72
2022/05/12 07:07:41;;;;;;;2.43;1.90;;;20.30;99.90;;;;;;5097304;28;20641;-73
2022/05/12 07:10:09;;;;;;;7.37;2.10;;;20.20;99.90;;;;;;5080637;28;20617;-71
2022/05/12 07:12:35;;;;;;;4.50;1.40;;;20.40;99.90;;;;;;5097249;28;20997;-73
2022/05/12 07:15:05;;;;;;;5.40;1.80;;;20.20;99.90;;;;;;5098523;28;20621;-72
2022/05/12 07:17:33;;;;;;;4.30;2.00;;;20.00;99.90;;;;;;5098006;28;20608;-72
2022/05/12 07:28:14;;;;;;;1.90;1.67;;;20.40;99.90;;;;;;5096901;28;20683;-76
2022/05/12 07:33:30;;;;;;;3.63;2.17;;;20.50;99.90;;;;;;5097224;28;20592;-72
2022/05/12 07:35:58;;;;;;;2.80;1.70;;;20.20;99.90;;;;;;5098240;28;20562;-72
2022/05/12 07:38:25;;;;;;;2.80;1.30;;;20.30;99.90;;;;;;5098071;28;20617;-71
2022/05/12 07:40:52;;;;;;;3.40;1.40;;;20.50;99.90;;;;;;5098090;28;20703;-72
2022/05/12 07:43:18;;;;;;;1.80;1.70;;;20.90;99.90;;;;;;5079803;28;20606;-72
2022/05/12 07:45:44;;;;;;;2.00;1.27;;;20.80;99.90;;;;;;5097975;28;20617;-72
2022/05/12 07:48:12;;;;;;;3.73;1.60;;;20.70;99.90;;;;;;5098095;28;20605;-72
2022/05/12 07:50:39;;;;;;;1.40;1.30;;;21.20;99.90;;;;;;5097969;28;21104;-72
2022/05/12 07:53:06;;;;;;;3.07;1.60;;;21.30;99.90;;;;;;5096145;28;20617;-73
2022/05/12 07:55:33;;;;;;;2.17;1.70;;;21.10;99.90;;;;;;5096556;28;20621;-72
2022/05/12 07:58:00;;;;;;;1.83;1.60;;;21.50;99.90;;;;;;5095726;28;20640;-72
2022/05/12 08:00:30;;;;;;;3.47;1.93;;;21.70;99.90;;;;;;5096120;28;21030;-71
2022/05/12 08:02:57;;;;;;;4.60;1.57;;;22.30;99.90;;;;;;5095391;28;20624;-71
2022/05/12 08:05:24;;;;;;;2.80;1.50;;;22.00;99.90;;;;;;5077326;28;21292;-70
2022/05/12 08:07:51;;;;;;;3.83;1.90;;;21.80;99.90;;;;;;5096594;28;20726;-71
2022/05/12 08:10:18;;;;;;;2.13;1.77;;;21.90;99.90;;;;;;5095828;28;20624;-71
2022/05/12 08:12:45;;;;;;;3.37;1.60;;;22.30;99.90;;;;;;5096728;28;20614;-71
2022/05/12 08:15:12;;;;;;;4.47;2.20;;;22.00;99.90;;;;;;5095519;28;21163;-72
2022/05/12 08:17:38;;;;;;;3.10;1.90;;;21.90;99.90;;;;;;5096404;28;20666;-71
2022/05/12 08:20:07;;;;;;;3.03;1.90;;;22.20;99.90;;;;;;5095737;28;20602;-72
2022/05/12 08:22:34;;;;;;;5.03;1.60;;;22.10;99.90;;;;;;5095815;28;20778;-72
2022/05/12 08:25:00;;;;;;;1.80;1.53;;;22.30;99.90;;;;;;5096757;28;20619;-72
2022/05/12 08:27:27;;;;;;;5.17;2.13;;;21.80;99.90;;;;;;5096048;28;20974;-73
2022/05/12 08:29:54;;;;;;;2.40;2.13;;;21.90;99.90;;;;;;5097904;28;20696;-73
2022/05/12 08:32:20;;;;;;;3.40;2.40;;;22.00;99.90;;;;;;5096638;28;20620;-73
2022/05/12 08:34:46;;;;;;;6.77;1.70;;;22.90;99.90;;;;;;5096988;28;20974;-71
2022/05/12 08:37:15;;;;;;;1.70;1.53;;;22.20;99.90;;;;;;5096343;28;20619;-74
2022/05/12 08:39:44;;;;;;;2.00;1.33;;;22.10;99.90;;;;;;5079756;28;20792;-72
2022/05/12 08:42:33;;;;;;;4.23;1.70;;;22.20;99.90;;;;;;5098223;28;20706;-72
2022/05/12 08:45:03;;;;;;;3.53;1.90;;;22.10;99.90;;;;;;5097798;28;20622;-71
2022/05/12 08:47:35;;;;;;;2.03;1.83;;;21.90;99.90;;;;;;5096969;28;20606;-72
2022/05/12 08:50:03;;;;;;;2.10;1.90;;;21.70;99.90;;;;;;5097666;28;20748;-72
2022/05/12 08:52:55;;;;;;;2.60;1.70;;;21.50;99.90;;;;;;5096546;28;21206;-71
2022/05/12 08:55:28;;;;;;;2.90;1.87;;;21.30;99.90;;;;;;5096574;28;20640;-71
2022/05/12 08:57:58;;;;;;;5.17;1.87;;;21.60;99.90;;;;;;5096188;28;20610;-72
2022/05/12 09:00:27;;;;;;;4.40;1.80;;;21.90;99.90;;;;;;5096641;28;20584;-71
2022/05/12 09:03:09;;;;;;;5.83;2.07;;;21.70;99.90;;;;;;5096636;28;20609;-71
2022/05/12 09:06:03;;;;;;;2.07;1.80;;;21.90;99.90;;;;;;5094433;28;20637;-72
2022/05/12 09:08:45;;;;;;;2.13;1.80;;;21.80;99.90;;;;;;5096366;28;20632;-72
2022/05/12 09:11:28;;;;;;;2.30;2.10;;;21.50;99.90;;;;;;5094392;28;20621;-72
2022/05/12 09:13:55;;;;;;;3.53;2.13;;;21.40;99.90;;;;;;5095462;28;20577;-73
2022/05/12 09:16:32;;;;;;;3.20;1.90;;;21.60;99.90;;;;;;5095156;28;20636;-73
2022/05/12 09:19:00;;;;;;;5.00;2.33;;;21.80;99.90;;;;;;5077422;28;20624;-72
2022/05/12 09:21:30;;;;;;;8.97;2.83;;;21.40;99.90;;;;;;5094697;28;20668;-73
2022/05/12 09:23:57;;;;;;;3.23;2.13;;;22.10;99.90;;;;;;5095795;28;20601;-72
2022/05/12 09:26:41;;;;;;;3.43;2.23;;;22.00;99.90;;;;;;5093785;28;20617;-73
2022/05/12 09:29:30;;;;;;;4.17;2.00;;;22.30;99.90;;;;;;5095291;28;20617;-72
2022/05/12 09:32:03;;;;;;;2.23;1.63;;;22.60;99.90;;;;;;5094570;28;21163;-72
2022/05/12 09:34:31;;;;;;;3.23;1.90;;;22.60;99.90;;;;;;5094865;28;20617;-71
2022/05/12 09:37:14;;;;;;;4.20;1.70;;;22.80;99.90;;;;;;5094888;28;20618;-71
2022/05/12 09:39:53;;;;;;;2.43;2.23;;;22.70;99.90;;;;;;5095640;28;20624;-73
2022/05/12 09:42:28;;;;;;;6.00;1.90;;;22.70;99.90;;;;;;5094988;28;20672;-73
2022/05/12 09:45:07;;;;;;;4.43;1.70;;;23.10;99.90;;;;;;5097331;28;20942;-73
2022/05/12 09:47:34;;;;;;;3.20;1.63;;;22.70;99.90;;;;;;5096885;28;21172;-73
2022/05/12 09:50:26;;;;;;;2.13;1.77;;;22.70;99.90;;;;;;5096599;28;21172;-73
2022/05/12 09:52:55;;;;;;;3.00;1.57;;;22.80;99.90;;;;;;5085058;28;20645;-73
2022/05/12 09:55:27;;;;;;;1.80;1.67;;;22.80;99.90;;;;;;5096702;28;20720;-73
2022/05/12 09:58:21;;;;;;;4.60;2.13;;;22.60;99.90;;;;;;5079006;28;21246;-73
2022/05/12 10:01:05;;;;;;;3.67;1.60;;;22.40;99.90;;;;;;5095326;28;20613;-73
2022/05/12 10:09:30;;;;;;;6.10;1.50;;;22.80;99.90;;;;;;5077163;28;20983;-73
2022/05/12 10:12:02;;;;;;;3.07;1.67;;;22.30;99.90;;;;;;5091557;28;20641;-73
2022/05/12 10:14:59;;;;;;;2.43;2.00;;;22.40;99.90;;;;;;5095429;28;20609;-73
2022/05/12 10:17:44;;;;;;;4.30;1.70;;;22.40;99.90;;;;;;5095398;28;20654;-73
2022/05/12 10:20:20;;;;;;;1.70;1.60;;;23.00;99.90;;;;;;5096188;28;20589;-73
2022/05/12 10:23:10;;;;;;;4.13;2.07;;;23.00;99.90;;;;;;5077531;28;20625;-73
2022/05/12 10:25:47;;;;;;;2.60;1.57;;;22.40;99.90;;;;;;5095363;28;20566;-72
2022/05/12 10:28:23;;;;;;;5.63;1.93;;;22.70;99.90;;;;;;5094720;28;20637;-73
2022/05/12 10:31:11;;;;;;;6.20;1.77;;;22.70;99.90;;;;;;5095096;28;20561;-72
2022/05/12 10:33:38;;;;;;;3.07;2.00;;;23.20;99.90;;;;;;5095231;28;20582;-72
2022/05/12 10:36:35;;;;;;;2.10;1.50;;;23.70;99.90;;;;;;5094493;28;20602;-72
2022/05/12 10:39:41;;;;;;;3.97;2.10;;;23.00;99.90;;;;;;5098272;28;21164;-72
2022/05/12 10:42:23;;;;;;;2.90;1.53;;;22.80;99.90;;;;;;5100504;28;20632;-72
2022/05/12 10:45:14;;;;;;;1.53;1.43;;;23.40;99.90;;;;;;5100117;28;20565;-72
2022/05/12 10:48:00;;;;;;;1.90;1.70;;;23.30;99.90;;;;;;5100632;28;21029;-72
2022/05/12 10:50:29;;;;;;;3.30;1.70;;;23.10;99.90;;;;;;5100432;28;20619;-73
2022/05/12 10:53:34;;;;;;;3.10;2.00;;;23.40;99.90;;;;;;5100278;28;20616;-73
2022/05/12 10:56:03;;;;;;;3.30;1.70;;;23.80;99.90;;;;;;5099532;28;20589;-73
2022/05/12 10:59:00;;;;;;;7.03;1.67;;;23.50;99.90;;;;;;5098344;28;21163;-73
2022/05/12 11:01:40;;;;;;;1.70;1.50;;;23.60;99.90;;;;;;5100552;28;20684;-73
2022/05/12 11:04:43;;;;;;;3.63;1.77;;;23.30;99.90;;;;;;5101007;28;20596;-74
2022/05/12 11:07:28;;;;;;;3.17;1.40;;;23.50;99.90;;;;;;5098758;28;20984;-72
2022/05/12 11:10:15;;;;;;;7.00;1.80;;;22.70;99.90;;;;;;5066242;28;20613;-72
2022/05/12 11:12:52;;;;;;;1.70;1.60;;;22.50;99.90;;;;;;5100128;28;20637;-72
2022/05/12 11:15:31;;;;;;;2.30;1.40;;;23.20;99.90;;;;;;5100124;28;21147;-73
2022/05/12 11:18:04;;;;;;;2.60;1.20;;;23.30;99.90;;;;;;5065970;28;20644;-73
2022/05/12 11:20:35;;;;;;;1.43;1.27;;;23.10;99.90;;;;;;5100115;28;20581;-73
2022/05/12 11:23:08;;;;;;;1.83;1.50;;;23.40;99.90;;;;;;5080689;28;21295;-74
2022/05/12 11:25:56;;;;;;;2.80;1.80;;;23.50;99.90;;;;;;5098205;28;20574;-73
2022/05/12 11:31:39;;;;;;;3.60;1.70;;;23.30;99.90;;;;;;5099371;28;20573;-73
2022/05/12 11:34:11;;;;;;;1.53;1.43;;;23.70;99.90;;;;;;5099757;28;20581;-72
2022/05/12 11:36:50;;;;;;;3.97;1.53;;;23.60;99.90;;;;;;5097095;28;20617;-73
2022/05/12 11:39:31;;;;;;;5.17;1.93;;;24.40;99.90;;;;;;5078462;28;20624;-73
2022/05/12 11:42:28;;;;;;;5.57;1.93;;;24.30;99.90;;;;;;5096201;28;20657;-73
2022/05/12 11:45:03;;;;;;;1.93;1.73;;;24.30;99.90;;;;;;5078670;28;20625;-73
2022/05/12 11:47:58;;;;;;;1.60;1.50;;;25.00;99.90;;;;;;5096542;28;20604;-73
2022/05/12 11:50:48;;;;;;;2.50;1.60;;;23.70;99.90;;;;;;5095385;28;20663;-73
2022/05/12 11:53:22;;;;;;;1.83;1.50;;;23.30;99.90;;;;;;5097203;28;21105;-73
2022/05/12 11:56:01;;;;;;;3.73;1.87;;;23.70;99.90;;;;;;5099891;28;20669;-73
2022/05/12 11:58:41;;;;;;;1.50;1.40;;;23.70;99.90;;;;;;5098098;28;20631;-73
2022/05/12 12:01:33;;;;;;;1.77;1.67;;;25.30;99.90;;;;;;5098798;28;20617;-73
2022/05/12 12:04:03;;;;;;;1.60;1.50;;;24.70;99.90;;;;;;5049614;28;20704;-73
2022/05/12 12:06:35;;;;;;;3.33;1.70;;;25.20;99.90;;;;;;5097958;28;20649;-73
2022/05/12 12:09:49;;;;;;;2.23;1.70;;;26.00;99.90;;;;;;5098670;28;20655;-73
2022/05/12 12:12:42;;;;;;;3.20;1.90;;;26.10;99.90;;;;;;5096544;28;20566;-74
2022/05/12 12:15:11;;;;;;;1.83;1.70;;;25.90;99.90;;;;;;5086037;28;20628;-72
2022/05/12 12:17:40;;;;;;;9.47;2.03;;;27.00;99.90;;;;;;5097511;28;20610;-72
2022/05/12 12:20:28;;;;;;;2.07;1.70;;;26.40;99.90;;;;;;5078390;28;20612;-72
2022/05/12 12:23:14;;;;;;;2.27;1.67;;;26.70;99.90;;;;;;5097452;28;20636;-72
2022/05/12 12:25:44;;;;;;;2.97;1.83;;;26.70;99.90;;;;;;5080285;28;20621;-72
2022/05/12 12:28:35;;;;;;;4.13;2.20;;;28.00;99.90;;;;;;5097132;28;20617;-73
2022/05/12 12:31:21;;;;;;;2.53;1.83;;;29.30;99.90;;;;;;5095352;28;20566;-73
2022/05/12 12:34:17;;;;;;;2.10;1.80;;;27.10;99.90;;;;;;5094970;28;20585;-72
2022/05/12 12:37:00;;;;;;;2.93;2.00;;;28.40;99.90;;;;;;5094004;28;20628;-72
2022/05/12 12:40:02;;;;;;;2.03;1.60;;;27.10;99.90;;;;;;5095036;28;20583;-72
2022/05/12 12:42:34;;;;;;;2.60;1.93;;;27.10;99.90;;;;;;5040064;28;21291;-73
2022/05/12 12:45:09;;;;;;;3.07;2.00;;;26.80;99.90;;;;;;5096108;28;20609;-73
2022/05/12 12:47:55;;;;;;;5.20;1.67;;;26.60;99.90;;;;;;5097268;28;20588;-72
2022/05/12 12:50:28;;;;;;;4.20;1.80;;;26.50;99.90;;;;;;5081532;28;20613;-72
2022/05/12 12:52:56;;;;;;;1.90;1.70;;;26.40;99.90;;;;;;5098059;28;21128;-73
2022/05/12 12:58:42;;;;;;;2.40;1.83;;;25.60;99.90;;;;;;5097798;28;20620;-72
2022/05/12 13:01:18;;;;;;;1.90;1.77;;;25.80;99.90;;;;;;5098089;28;20577;-72
2022/05/12 13:03:52;;;;;;;1.90;1.80;;;26.30;99.90;;;;;;5097553;28;20635;-72
2022/05/12 13:06:30;;;;;;;6.43;1.70;;;27.10;99.90;;;;;;5096703;28;20748;-74
2022/05/12 13:09:06;;;;;;;2.80;2.30;;;27.70;99.90;;;;;;5097712;28;20566;-74
2022/05/12 13:11:36;;;;;;;3.93;1.93;;;28.50;99.90;;;;;;5097726;28;20585;-74
2022/05/12 13:14:02;;;;;;;1.80;1.70;;;28.60;99.90;;;;;;5080540;28;20545;-74
2022/05/12 13:16:35;;;;;;;1.80;1.70;;;28.80;99.90;;;;;;5097535;28;20609;-72
2022/05/12 13:19:03;;;;;;;3.67;2.07;;;28.20;99.90;;;;;;5097191;28;20948;-72
2022/05/12 13:21:34;;;;;;;2.30;1.97;;;26.40;99.90;;;;;;5097673;28;20597;-72
2022/05/12 13:24:09;;;;;;;2.50;1.90;;;26.70;99.90;;;;;;5096047;28;20581;-73
2022/05/12 13:26:37;;;;;;;2.97;2.10;;;28.10;99.90;;;;;;5080296;28;21138;-73
2022/05/12 13:29:06;;;;;;;2.40;2.20;;;29.00;99.90;;;;;;5096649;28;20949;-72
2022/05/12 13:31:40;;;;;;;2.67;1.90;;;28.40;99.90;;;;;;5095901;28;20632;-72
2022/05/12 13:34:25;;;;;;;2.30;2.07;;;28.20;99.90;;;;;;5097497;28;20572;-72
2022/05/12 13:36:55;;;;;;;2.40;2.20;;;27.30;99.90;;;;;;5096987;28;20573;-72
2022/05/12 13:39:51;;;;;;;1.90;1.80;;;27.20;99.90;;;;;;5096373;28;20602;-72
2022/05/12 13:42:21;;;;;;;2.07;1.70;;;27.10;99.90;;;;;;5096317;28;20632;-72